Time,TemperatureF,DewpointF,PressureIn,WindDirection,WindDirectionDegrees,WindSpeedMPH,WindSpeedGustMPH,Humidity,HourlyPrecipIn,Conditions,Clouds,dailyrainin,SoftwareType,DateUTC
2013-08-15 21:49:00,73.8,72.0,29.69,NNE,23,0.0,0.0,94,0.02,,,0.00,WUHU216HW,2013-08-16 02:49:00,
2013-08-15 21:54:00,73.8,72.0,29.70,NNE,23,0.0,1.1,94,0.02,,,0.00,WUHU216HW,2013-08-16 02:54:00,
2013-08-15 21:59:00,74.0,72.2,29.70,East,90,1.3,1.3,94,0.01,,,0.00,WUHU216HW,2013-08-16 02:59:00,
2013-08-15 22:04:00,74.0,72.2,29.70,SE,135,1.3,1.6,94,0.01,,,0.00,WUHU216HW,2013-08-16 03:04:00,
2013-08-15 22:09:00,74.0,72.2,29.71,SE,135,0.0,2.0,94,0.01,,,0.00,WUHU216HW,2013-08-16 03:09:00,
2013-08-15 22:14:00,74.2,72.4,29.71,SE,135,0.0,2.0,94,0.01,,,0.00,WUHU216HW,2013-08-16 03:14:00,
2013-08-15 22:19:00,74.0,72.2,29.72,NNE,23,0.4,1.1,94,0.01,,,0.00,WUHU216HW,2013-08-16 03:19:00,
2013-08-15 22:24:00,74.0,72.2,29.72,NNE,23,0.0,1.1,94,0.00,,,0.00,WUHU216HW,2013-08-16 03:24:00,
2013-08-15 22:29:00,74.0,72.2,29.72,NNE,23,1.1,1.1,94,0.00,,,0.00,WUHU216HW,2013-08-16 03:29:00,
2013-08-15 22:34:00,74.2,72.4,29.73,NNE,23,0.0,1.1,94,0.00,,,0.00,WUHU216HW,2013-08-16 03:34:00,
2013-08-15 22:39:00,74.2,72.4,29.73,ENE,68,2.5,2.5,94,0.00,,,0.00,WUHU216HW,2013-08-16 03:39:00,
2013-08-15 22:44:00,73.8,72.0,29.72,NNE,23,0.2,2.9,94,0.00,,,0.00,WUHU216HW,2013-08-16 03:44:00,
2013-08-15 22:49:00,73.8,72.0,29.73,NNE,23,0.0,2.9,94,0.00,,,0.00,WUHU216HW,2013-08-16 03:49:00,
2013-08-15 22:54:00,73.8,72.0,29.73,NNE,23,0.0,1.3,94,0.00,,,0.00,WUHU216HW,2013-08-16 03:54:00,
2013-08-15 22:59:00,73.8,72.0,29.73,NE,45,2.2,2.2,94,0.00,,,0.00,WUHU216HW,2013-08-16 03:59:00,
2013-08-15 23:01:00,73.8,72.0,29.73,NE,45,3.1,3.1,94,0.00,,,0.00,WUHU216HW,2013-08-16 04:01:00,
2013-08-15 23:06:00,73.6,71.8,29.73,NNE,23,2.9,3.1,94,0.00,,,0.00,WUHU216HW,2013-08-16 04:06:00,
2013-08-15 23:11:00,73.6,72.1,29.73,North,0,1.1,3.6,95,0.00,,,0.00,WUHU216HW,2013-08-16 04:11:00,
2013-08-15 23:16:00,73.6,72.1,29.73,North,0,1.1,3.6,95,0.00,,,0.00,WUHU216HW,2013-08-16 04:16:00,
2013-08-15 23:21:00,73.6,72.1,29.73,NNE,23,1.8,2.9,95,0.00,,,0.00,WUHU216HW,2013-08-16 04:21:00,
2013-08-15 23:26:00,73.6,72.1,29.73,North,0,0.4,2.9,95,0.00,,,0.00,WUHU216HW,2013-08-16 04:26:00,
2013-08-15 23:31:00,73.6,72.1,29.73,North,0,0.4,2.0,95,0.00,,,0.00,WUHU216HW,2013-08-16 04:31:00,
2013-08-15 23:36:00,73.8,72.3,29.74,North,0,0.0,1.8,95,0.00,,,0.00,WUHU216HW,2013-08-16 04:36:00,
2013-08-15 23:41:00,74.5,73.0,29.74,WSW,248,1.6,1.6,95,0.00,,,0.00,WUHU216HW,2013-08-16 04:41:00,
2013-08-15 23:46:00,74.5,72.7,29.73,WSW,248,0.0,1.8,94,0.00,,,0.00,WUHU216HW,2013-08-16 04:46:00,
2013-08-15 23:51:00,74.3,72.8,29.73,WSW,248,1.1,1.8,95,0.00,,,0.00,WUHU216HW,2013-08-16 04:51:00,
2013-08-15 23:56:00,74.3,72.8,29.74,SSW,203,0.7,1.8,95,0.00,,,0.00,WUHU216HW,2013-08-16 04:56:00,